createdAt,value
2022-11-02T00:01:30.862Z,13.10
2022-11-02T00:05:39.661Z,13.10
2022-11-02T00:09:48.300Z,13.20
2022-11-02T00:13:56.861Z,13.20
2022-11-02T00:18:08.862Z,13.30
2022-11-02T00:22:17.760Z,13.40
2022-11-02T00:26:28.230Z,13.50
2022-11-02T00:30:38.317Z,13.60
2022-11-02T00:34:46.922Z,13.60
2022-11-02T00:38:55.459Z,13.60
2022-11-02T00:43:04.019Z,13.60
2022-11-02T00:47:12.808Z,13.70
2022-11-02T00:51:21.368Z,13.60
2022-11-02T00:55:29.992Z,13.70
2022-11-02T00:59:38.672Z,13.60
2022-11-02T01:03:47.186Z,13.60
2022-11-02T01:07:56.975Z,13.60
2022-11-02T01:12:06.827Z,13.60
2022-11-02T01:16:16.565Z,13.70
2022-11-02T01:20:25.213Z,13.70
2022-11-02T01:24:33.700Z,13.80
2022-11-02T01:28:42.718Z,13.80
2022-11-02T01:32:51.341Z,13.80
2022-11-02T01:36:59.936Z,13.70
2022-11-02T01:41:08.494Z,13.70
2022-11-02T01:45:17.060Z,13.70
2022-11-02T01:49:26.656Z,13.60
2022-11-02T01:53:37.268Z,13.70
2022-11-02T01:57:48.913Z,13.70
2022-11-02T02:01:57.587Z,13.70
2022-11-02T02:06:12.517Z,13.60
2022-11-02T02:10:22.275Z,13.60
2022-11-02T02:14:30.902Z,13.60
2022-11-02T02:18:51.068Z,13.50
2022-11-02T02:23:23.491Z,13.40
2022-11-02T02:27:51.779Z,13.40
2022-11-02T02:32:21.295Z,13.30
2022-11-02T02:36:52.077Z,13.30
2022-11-02T02:41:12.809Z,13.20
2022-11-02T02:45:30.413Z,13.20
2022-11-02T02:49:42.068Z,13.20
2022-11-02T02:53:53.798Z,13.20
2022-11-02T02:58:04.926Z,13.20
2022-11-02T03:02:36.832Z,13.20
2022-11-02T03:06:48.558Z,13.10
2022-11-02T03:11:17.870Z,13.10
2022-11-02T03:15:30.393Z,13.10
2022-11-02T03:19:48.033Z,13.20
2022-11-02T03:24:29.564Z,13.20
2022-11-02T03:28:46.967Z,13.10
2022-11-02T03:33:08.705Z,13.10
2022-11-02T03:37:23.033Z,13.10
2022-11-02T03:41:33.555Z,13.10
2022-11-02T03:45:48.105Z,13.10
2022-11-02T03:49:58.031Z,13.00
2022-11-02T03:54:22.070Z,13.00
2022-11-02T03:58:50.037Z,12.90
2022-11-02T04:03:04.257Z,12.90
2022-11-02T04:07:12.926Z,12.90
2022-11-02T04:11:39.478Z,12.90
2022-11-02T04:15:48.105Z,12.90
2022-11-02T04:19:57.787Z,12.80
2022-11-02T04:24:24.614Z,12.80
2022-11-02T04:28:33.242Z,12.80
2022-11-02T04:33:02.661Z,12.80
2022-11-02T04:41:44.596Z,12.70
2022-11-02T04:45:53.224Z,12.70
2022-11-02T04:50:01.852Z,12.70
2022-11-02T04:54:10.583Z,12.60
2022-11-02T04:58:19.106Z,12.70
2022-11-02T05:02:27.879Z,12.70
2022-11-02T05:06:38.214Z,12.70
2022-11-02T05:10:46.736Z,12.70
2022-11-02T05:14:55.365Z,12.70
2022-11-02T05:19:06.868Z,12.70
2022-11-02T05:23:14.158Z,12.70
2022-11-02T05:27:22.773Z,12.70
2022-11-02T05:31:31.349Z,12.70
2022-11-02T05:35:40.044Z,12.70
2022-11-02T05:39:50.459Z,12.70
2022-11-02T05:43:58.837Z,12.60
2022-11-02T05:48:07.508Z,12.50
2022-11-02T05:52:16.100Z,12.50
2022-11-02T05:56:25.351Z,12.50
2022-11-02T06:00:34.146Z,12.60
2022-11-02T06:04:43.723Z,12.60
2022-11-02T06:08:52.244Z,12.50
2022-11-02T06:13:03.111Z,12.50
2022-11-02T06:17:11.870Z,12.50
2022-11-02T06:21:20.493Z,12.50
2022-11-02T06:25:29.945Z,12.50
2022-11-02T06:29:38.574Z,12.60
2022-11-02T06:33:47.350Z,12.60
2022-11-02T06:37:56.887Z,12.70
2022-11-02T06:42:05.597Z,12.70
2022-11-02T06:46:14.167Z,12.70
2022-11-02T06:50:24.798Z,12.70
2022-11-02T06:54:33.623Z,12.70
2022-11-02T06:58:42.601Z,12.80
2022-11-02T07:03:05.737Z,12.80
2022-11-02T07:07:14.571Z,12.80
2022-11-02T07:11:42.647Z,12.80
2022-11-02T07:15:55.812Z,12.70
2022-11-02T07:20:05.516Z,12.70
2022-11-02T07:24:14.678Z,12.70
2022-11-02T07:28:23.306Z,12.60
2022-11-02T07:32:31.819Z,12.70
2022-11-02T07:36:41.354Z,12.60
2022-11-02T07:40:50.886Z,12.60
2022-11-02T07:44:59.423Z,12.60
2022-11-02T07:49:08.874Z,12.60
2022-11-02T07:53:18.170Z,12.60
2022-11-02T07:57:26.778Z,12.60
2022-11-02T08:01:35.329Z,12.70
2022-11-02T08:05:44.140Z,12.70
2022-11-02T08:09:52.768Z,12.70
2022-11-02T08:14:02.544Z,12.70
2022-11-02T08:18:15.362Z,12.70
2022-11-02T08:22:27.667Z,12.80
2022-11-02T08:26:37.745Z,12.80
2022-11-02T08:30:46.841Z,12.80
2022-11-02T08:34:55.496Z,12.90
2022-11-02T08:39:04.246Z,12.80
2022-11-02T08:43:15.057Z,12.90
2022-11-02T08:47:26.086Z,12.90
2022-11-02T08:51:34.658Z,13.00
2022-11-02T08:55:43.388Z,13.00
2022-11-02T08:59:51.981Z,13.10
2022-11-02T09:04:00.710Z,13.00
2022-11-02T09:08:12.705Z,13.00
2022-11-02T09:12:21.782Z,13.10
2022-11-02T09:16:30.717Z,13.20
2022-11-02T09:20:39.320Z,13.20
2022-11-02T09:24:48.082Z,13.30
2022-11-02T09:29:16.277Z,13.30
2022-11-02T09:33:44.737Z,13.30
2022-11-02T09:38:13.253Z,13.30
2022-11-02T09:42:41.056Z,13.30
2022-11-02T09:47:17.752Z,13.20
2022-11-02T09:51:06.516Z,13.30
2022-11-02T09:55:18.160Z,13.30
2022-11-02T09:59:28.450Z,13.30
2022-11-02T10:03:54.709Z,13.20
2022-11-02T10:08:06.768Z,13.40
2022-11-02T10:12:18.476Z,13.50
2022-11-02T10:16:39.499Z,13.60
2022-11-02T10:20:51.758Z,13.70
2022-11-02T10:25:03.613Z,13.90
2022-11-02T10:29:24.633Z,14.10
2022-11-02T10:33:33.195Z,14.20
2022-11-02T10:38:19.677Z,14.30
2022-11-02T10:42:50.949Z,14.50
2022-11-02T10:47:14.104Z,14.40
2022-11-02T10:51:24.760Z,14.30
2022-11-02T10:55:42.318Z,14.20
2022-11-02T11:00:26.476Z,14.10
2022-11-02T11:04:36.002Z,14.20
2022-11-02T11:08:50.041Z,14.30
2022-11-02T11:12:59.423Z,14.30
2022-11-02T11:21:45.278Z,14.40
2022-11-02T11:26:15.187Z,14.40
2022-11-02T11:35:05.262Z,14.40
2022-11-02T11:39:27.871Z,14.50
2022-11-02T11:43:38.578Z,14.60
2022-11-02T11:47:48.922Z,14.60
2022-11-02T11:51:59.005Z,14.70
2022-11-02T11:56:09.427Z,14.90
2022-11-02T12:00:29.692Z,15.00
2022-11-02T12:04:39.702Z,15.10
2022-11-02T12:09:06.161Z,15.20
2022-11-02T12:13:29.389Z,15.20
2022-11-02T12:17:58.132Z,15.20
2022-11-02T12:22:16.404Z,15.10
2022-11-02T12:26:30.748Z,15.20
2022-11-02T12:30:42.324Z,15.30
2022-11-02T12:35:29.727Z,15.40
2022-11-02T12:40:05.576Z,15.40
2022-11-02T12:44:39.813Z,15.30
2022-11-02T12:48:54.531Z,15.20
2022-11-02T12:53:21.511Z,15.20
2022-11-02T12:57:32.597Z,15.20
2022-11-02T13:02:02.398Z,15.20
2022-11-02T13:06:14.225Z,15.10
2022-11-02T13:10:25.925Z,14.90
2022-11-02T13:14:52.270Z,14.90
2022-11-02T13:19:03.952Z,15.00
2022-11-02T13:23:21.501Z,15.00
2022-11-02T13:27:37.610Z,15.10
2022-11-02T13:32:01.567Z,15.20
2022-11-02T13:36:11.145Z,15.20
2022-11-02T13:40:25.710Z,15.20
2022-11-02T13:44:56.672Z,15.20
2022-11-02T13:49:17.282Z,15.10
2022-11-02T13:53:32.105Z,15.00
2022-11-02T13:57:43.867Z,14.90
2022-11-02T14:01:54.896Z,14.80
2022-11-02T14:06:07.257Z,14.70
2022-11-02T14:10:20.781Z,14.70
2022-11-02T14:14:29.539Z,14.90
2022-11-02T14:18:38.468Z,15.00
2022-11-02T14:23:08.051Z,15.00
2022-11-02T14:27:21.369Z,15.00
2022-11-02T14:31:42.576Z,14.90
2022-11-02T14:35:59.890Z,14.90
2022-11-02T14:40:21.175Z,14.90
2022-11-02T14:44:53.698Z,14.80
2022-11-02T14:49:04.856Z,14.80
2022-11-02T14:53:28.792Z,14.80
2022-11-02T14:57:43.355Z,14.70
2022-11-02T15:01:58.441Z,14.70
2022-11-02T15:06:10.088Z,14.60
2022-11-02T15:10:22.847Z,14.60
2022-11-02T15:14:52.224Z,14.50
2022-11-02T15:19:20.143Z,14.30
2022-11-02T15:23:32.208Z,14.20
2022-11-02T15:27:45.310Z,14.20
2022-11-02T15:31:57.113Z,14.10
2022-11-02T15:36:08.218Z,14.00
2022-11-02T15:40:25.897Z,13.90
2022-11-02T15:44:55.711Z,13.70
2022-11-02T15:49:19.835Z,13.70
2022-11-02T15:53:46.709Z,13.60
2022-11-02T15:58:18.032Z,13.60
2022-11-02T16:02:32.627Z,13.50
2022-11-02T16:06:44.015Z,13.40
2022-11-02T16:10:55.629Z,13.30
2022-11-02T16:15:13.252Z,13.20
2022-11-02T16:19:22.827Z,13.10
2022-11-02T16:23:38.290Z,13.10
2022-11-02T16:27:47.124Z,13.00
2022-11-02T16:31:56.572Z,13.00
2022-11-02T16:36:05.797Z,12.90
2022-11-02T16:40:21.437Z,12.80
2022-11-02T16:44:33.840Z,12.80
2022-11-02T16:48:45.525Z,12.70
2022-11-02T16:53:01.203Z,12.60
2022-11-02T16:57:15.583Z,12.50
2022-11-02T17:01:25.069Z,12.50
2022-11-02T17:05:33.971Z,12.50
2022-11-02T17:09:42.817Z,12.50
2022-11-02T17:13:54.500Z,12.40
2022-11-02T17:18:13.221Z,12.40
2022-11-02T17:22:27.938Z,12.30
2022-11-02T17:26:38.996Z,12.30
2022-11-02T17:30:48.985Z,12.20
2022-11-02T17:34:58.888Z,12.20
2022-11-02T17:39:07.445Z,12.20
2022-11-02T17:43:16.022Z,12.20
2022-11-02T17:47:26.483Z,12.10
2022-11-02T17:51:36.609Z,12.10
2022-11-02T17:55:45.180Z,12.10
2022-11-02T17:59:54.300Z,12.10
2022-11-02T18:04:02.828Z,12.10
2022-11-02T18:08:12.527Z,12.00
2022-11-02T18:12:21.107Z,11.90
2022-11-02T18:16:30.640Z,11.90
2022-11-02T18:20:41.952Z,11.80
2022-11-02T18:24:50.662Z,11.80
2022-11-02T18:28:59.184Z,11.80
2022-11-02T18:33:13.037Z,11.80
2022-11-02T18:37:18.081Z,11.80
2022-11-02T18:41:35.209Z,11.80
2022-11-02T18:46:03.090Z,11.80
2022-11-02T18:50:33.632Z,11.70
2022-11-02T18:54:45.333Z,11.70
2022-11-02T18:58:55.469Z,11.70
2022-11-02T19:03:04.537Z,11.70
2022-11-02T19:07:32.108Z,11.70
2022-11-02T19:11:40.738Z,11.70
2022-11-02T19:15:49.571Z,11.70
2022-11-02T19:19:58.300Z,11.70
2022-11-02T19:24:07.912Z,11.70
2022-11-02T19:28:16.582Z,11.70
2022-11-02T19:32:25.210Z,11.70
2022-11-02T19:36:34.250Z,11.70
2022-11-02T19:40:42.877Z,11.70
2022-11-02T19:44:51.542Z,11.60
2022-11-02T19:49:00.478Z,11.60
2022-11-02T19:53:09.043Z,11.60
2022-11-02T19:57:37.053Z,11.50
2022-11-02T20:01:48.454Z,11.50
2022-11-02T20:06:01.755Z,11.50
2022-11-02T20:10:10.952Z,11.50
2022-11-02T20:14:19.691Z,11.50
2022-11-02T20:18:28.287Z,11.50
2022-11-02T20:22:38.474Z,11.50
2022-11-02T20:26:47.083Z,11.50
2022-11-02T20:30:56.017Z,11.50
2022-11-02T20:35:08.478Z,11.40
2022-11-02T20:39:15.743Z,11.40
2022-11-02T20:43:24.426Z,11.40
2022-11-02T20:47:34.114Z,11.30
2022-11-02T20:51:44.586Z,11.30
2022-11-02T20:55:53.216Z,11.30
2022-11-02T21:00:01.744Z,11.30
2022-11-02T21:04:13.890Z,11.20
2022-11-02T21:08:22.256Z,11.30
2022-11-02T21:12:49.443Z,11.20
2022-11-02T21:16:58.011Z,11.20
2022-11-02T21:21:18.700Z,11.20
2022-11-02T21:25:27.888Z,11.10
2022-11-02T21:29:36.466Z,11.10
2022-11-02T21:33:46.412Z,11.10
2022-11-02T21:38:01.176Z,11.10
2022-11-02T21:42:08.798Z,11.10
2022-11-02T21:46:19.058Z,11.10
2022-11-02T21:50:27.690Z,11.20
2022-11-02T21:54:38.248Z,11.20
2022-11-02T21:58:47.817Z,11.20
2022-11-02T22:02:56.400Z,11.20
2022-11-02T22:07:05.746Z,11.30
2022-11-02T22:11:16.802Z,11.40
2022-11-02T22:15:25.356Z,11.40
2022-11-02T22:19:34.126Z,11.40
2022-11-02T22:23:44.598Z,11.40
2022-11-02T22:27:53.228Z,11.40
2022-11-02T22:32:02.266Z,11.40
2022-11-02T22:36:13.666Z,11.40
2022-11-02T22:40:22.391Z,11.40
2022-11-02T22:44:31.122Z,11.40
2022-11-02T22:48:39.754Z,11.40
2022-11-02T22:52:48.339Z,11.40
2022-11-02T22:56:57.214Z,11.40
2022-11-02T23:01:18.850Z,11.40
2022-11-02T23:05:27.575Z,11.40
2022-11-02T23:09:36.204Z,11.30
2022-11-02T23:13:46.182Z,11.30
2022-11-02T23:17:54.791Z,11.30
2022-11-02T23:22:26.360Z,11.20
2022-11-02T23:26:35.092Z,11.20
2022-11-02T23:35:34.740Z,11.20
2022-11-02T23:39:49.105Z,11.20
2022-11-02T23:44:14.261Z,11.20
2022-11-02T23:48:22.851Z,11.10
2022-11-02T23:52:49.296Z,11.10
2022-11-02T23:56:58.128Z,11.10
